sensor_id;sensor_type;location;lat;lon;timestamp;pressure;altitude;pressure_sealevel;temperature
29423;BMP180;16399;51.686;8.684;2023-06-10T00:00:32;99862.00;;;18.10
29423;BMP180;16399;51.686;8.684;2023-06-10T00:03:35;99858.00;;;18.10
29423;BMP180;16399;51.686;8.684;2023-06-10T00:06:37;99848.00;;;18.10
29423;BMP180;16399;51.686;8.684;2023-06-10T00:09:40;99855.00;;;18.20
29423;BMP180;16399;51.686;8.684;2023-06-10T00:12:43;99849.00;;;18.20
29423;BMP180;16399;51.686;8.684;2023-06-10T00:15:45;99847.00;;;18.20
29423;BMP180;16399;51.686;8.684;2023-06-10T00:18:47;99851.00;;;18.20
29423;BMP180;16399;51.686;8.684;2023-06-10T00:21:52;99843.00;;;18.10
29423;BMP180;16399;51.686;8.684;2023-06-10T00:24:55;99845.00;;;18.10
29423;BMP180;16399;51.686;8.684;2023-06-10T00:27:59;99845.00;;;18.10
29423;BMP180;16399;51.686;8.684;2023-06-10T00:31:01;99848.00;;;18.10
29423;BMP180;16399;51.686;8.684;2023-06-10T00:34:06;99844.00;;;18.10
29423;BMP180;16399;51.686;8.684;2023-06-10T00:37:08;99835.00;;;18.10
29423;BMP180;16399;51.686;8.684;2023-06-10T00:40:11;99835.00;;;18.00
29423;BMP180;16399;51.686;8.684;2023-06-10T00:43:13;99840.00;;;18.00
29423;BMP180;16399;51.686;8.684;2023-06-10T00:46:16;99844.00;;;17.90
29423;BMP180;16399;51.686;8.684;2023-06-10T00:49:19;99839.00;;;17.90
29423;BMP180;16399;51.686;8.684;2023-06-10T00:52:22;99840.00;;;17.90
29423;BMP180;16399;51.686;8.684;2023-06-10T00:55:25;99843.00;;;17.90
29423;BMP180;16399;51.686;8.684;2023-06-10T00:58:28;99848.00;;;17.80
29423;BMP180;16399;51.686;8.684;2023-06-10T01:01:31;99844.00;;;17.80
29423;BMP180;16399;51.686;8.684;2023-06-10T01:04:35;99854.00;;;17.80
29423;BMP180;16399;51.686;8.684;2023-06-10T01:07:40;99844.00;;;17.80
29423;BMP180;16399;51.686;8.684;2023-06-10T01:10:50;99847.00;;;17.70
29423;BMP180;16399;51.686;8.684;2023-06-10T01:13:51;99846.00;;;17.70
29423;BMP180;16399;51.686;8.684;2023-06-10T01:16:55;99843.00;;;17.70
29423;BMP180;16399;51.686;8.684;2023-06-10T01:19:58;99838.00;;;17.60
29423;BMP180;16399;51.686;8.684;2023-06-10T01:23:01;99837.00;;;17.60
29423;BMP180;16399;51.686;8.684;2023-06-10T01:26:07;99846.00;;;17.60
29423;BMP180;16399;51.686;8.684;2023-06-10T01:29:20;99846.00;;;17.60
29423;BMP180;16399;51.686;8.684;2023-06-10T01:32:31;99847.00;;;17.60
29423;BMP180;16399;51.686;8.684;2023-06-10T01:35:30;99851.00;;;17.60
29423;BMP180;16399;51.686;8.684;2023-06-10T01:38:39;99851.00;;;17.50
29423;BMP180;16399;51.686;8.684;2023-06-10T01:41:41;99852.00;;;17.50
29423;BMP180;16399;51.686;8.684;2023-06-10T01:44:43;99857.00;;;17.40
29423;BMP180;16399;51.686;8.684;2023-06-10T01:47:46;99855.00;;;17.30
29423;BMP180;16399;51.686;8.684;2023-06-10T01:50:48;99853.00;;;17.20
29423;BMP180;16399;51.686;8.684;2023-06-10T01:53:50;99865.00;;;17.10
29423;BMP180;16399;51.686;8.684;2023-06-10T01:56:52;99863.00;;;17.10
29423;BMP180;16399;51.686;8.684;2023-06-10T01:59:55;99859.00;;;16.90
29423;BMP180;16399;51.686;8.684;2023-06-10T02:02:57;99870.00;;;16.90
29423;BMP180;16399;51.686;8.684;2023-06-10T02:06:00;99862.00;;;16.80
29423;BMP180;16399;51.686;8.684;2023-06-10T02:09:02;99867.00;;;16.70
29423;BMP180;16399;51.686;8.684;2023-06-10T02:12:05;99861.00;;;16.60
29423;BMP180;16399;51.686;8.684;2023-06-10T02:15:08;99861.00;;;16.60
29423;BMP180;16399;51.686;8.684;2023-06-10T02:18:10;99871.00;;;16.50
29423;BMP180;16399;51.686;8.684;2023-06-10T02:21:13;99868.00;;;16.40
29423;BMP180;16399;51.686;8.684;2023-06-10T02:24:16;99879.00;;;16.40
29423;BMP180;16399;51.686;8.684;2023-06-10T02:27:18;99883.00;;;16.30
29423;BMP180;16399;51.686;8.684;2023-06-10T02:30:21;99887.00;;;16.30
29423;BMP180;16399;51.686;8.684;2023-06-10T02:33:24;99892.00;;;16.30
29423;BMP180;16399;51.686;8.684;2023-06-10T02:36:26;99894.00;;;16.20
29423;BMP180;16399;51.686;8.684;2023-06-10T02:39:28;99891.00;;;16.20
29423;BMP180;16399;51.686;8.684;2023-06-10T02:42:31;99888.00;;;16.20
29423;BMP180;16399;51.686;8.684;2023-06-10T02:45:33;99891.00;;;16.20
29423;BMP180;16399;51.686;8.684;2023-06-10T02:48:40;99886.00;;;16.10
29423;BMP180;16399;51.686;8.684;2023-06-10T02:51:44;99887.00;;;16.10
29423;BMP180;16399;51.686;8.684;2023-06-10T02:54:46;99887.00;;;16.10
29423;BMP180;16399;51.686;8.684;2023-06-10T02:57:49;99890.00;;;16.00
29423;BMP180;16399;51.686;8.684;2023-06-10T03:00:51;99884.00;;;16.00
29423;BMP180;16399;51.686;8.684;2023-06-10T03:03:54;99879.00;;;16.00
29423;BMP180;16399;51.686;8.684;2023-06-10T03:06:57;99885.00;;;15.90
29423;BMP180;16399;51.686;8.684;2023-06-10T03:10:01;99884.00;;;15.90
29423;BMP180;16399;51.686;8.684;2023-06-10T03:13:03;99895.00;;;15.80
29423;BMP180;16399;51.686;8.684;2023-06-10T03:16:06;99894.00;;;15.80
29423;BMP180;16399;51.686;8.684;2023-06-10T03:19:09;99898.00;;;15.70
29423;BMP180;16399;51.686;8.684;2023-06-10T03:22:13;99896.00;;;15.70
29423;BMP180;16399;51.686;8.684;2023-06-10T03:25:16;99898.00;;;15.70
29423;BMP180;16399;51.686;8.684;2023-06-10T03:28:18;99900.00;;;15.70
29423;BMP180;16399;51.686;8.684;2023-06-10T03:31:20;99895.00;;;15.60
29423;BMP180;16399;51.686;8.684;2023-06-10T03:34:23;99903.00;;;15.60
29423;BMP180;16399;51.686;8.684;2023-06-10T03:37:25;99901.00;;;15.60
29423;BMP180;16399;51.686;8.684;2023-06-10T03:40:28;99906.00;;;15.70
29423;BMP180;16399;51.686;8.684;2023-06-10T03:43:32;99907.00;;;15.90
29423;BMP180;16399;51.686;8.684;2023-06-10T03:46:34;99906.00;;;16.10
29423;BMP180;16399;51.686;8.684;2023-06-10T03:49:37;99899.00;;;16.50
29423;BMP180;16399;51.686;8.684;2023-06-10T03:52:39;99893.00;;;16.90
29423;BMP180;16399;51.686;8.684;2023-06-10T03:55:42;99890.00;;;17.20
29423;BMP180;16399;51.686;8.684;2023-06-10T03:58:44;99895.00;;;17.50
29423;BMP180;16399;51.686;8.684;2023-06-10T04:01:46;99891.00;;;17.70
29423;BMP180;16399;51.686;8.684;2023-06-10T04:04:49;99895.00;;;17.90
29423;BMP180;16399;51.686;8.684;2023-06-10T04:07:52;99887.00;;;18.00
29423;BMP180;16399;51.686;8.684;2023-06-10T04:10:54;99900.00;;;18.00
29423;BMP180;16399;51.686;8.684;2023-06-10T04:13:57;99901.00;;;18.10
29423;BMP180;16399;51.686;8.684;2023-06-10T04:16:59;99892.00;;;18.30
29423;BMP180;16399;51.686;8.684;2023-06-10T04:20:02;99883.00;;;18.50
29423;BMP180;16399;51.686;8.684;2023-06-10T04:23:06;99888.00;;;18.60
29423;BMP180;16399;51.686;8.684;2023-06-10T04:26:08;99889.00;;;18.70
29423;BMP180;16399;51.686;8.684;2023-06-10T04:29:12;99895.00;;;18.70
29423;BMP180;16399;51.686;8.684;2023-06-10T04:32:14;99894.00;;;18.80
29423;BMP180;16399;51.686;8.684;2023-06-10T04:35:16;99896.00;;;18.90
29423;BMP180;16399;51.686;8.684;2023-06-10T04:38:19;99901.00;;;19.10
29423;BMP180;16399;51.686;8.684;2023-06-10T04:41:22;99895.00;;;19.30
29423;BMP180;16399;51.686;8.684;2023-06-10T04:44:24;99887.00;;;19.60
29423;BMP180;16399;51.686;8.684;2023-06-10T04:47:27;99889.00;;;19.80
29423;BMP180;16399;51.686;8.684;2023-06-10T04:50:29;99886.00;;;20.00
29423;BMP180;16399;51.686;8.684;2023-06-10T04:53:33;99880.00;;;20.30
29423;BMP180;16399;51.686;8.684;2023-06-10T04:56:35;99879.00;;;20.60
29423;BMP180;16399;51.686;8.684;2023-06-10T04:59:38;99887.00;;;21.00
29423;BMP180;16399;51.686;8.684;2023-06-10T05:02:40;99878.00;;;21.50
29423;BMP180;16399;51.686;8.684;2023-06-10T05:05:42;99874.00;;;21.90
29423;BMP180;16399;51.686;8.684;2023-06-10T05:08:44;99879.00;;;22.20
29423;BMP180;16399;51.686;8.684;2023-06-10T05:11:47;99887.00;;;22.60
29423;BMP180;16399;51.686;8.684;2023-06-10T05:14:49;99879.00;;;23.10
29423;BMP180;16399;51.686;8.684;2023-06-10T05:17:51;99883.00;;;23.70
29423;BMP180;16399;51.686;8.684;2023-06-10T05:20:54;99886.00;;;23.90
29423;BMP180;16399;51.686;8.684;2023-06-10T05:23:56;99889.00;;;23.70
29423;BMP180;16399;51.686;8.684;2023-06-10T05:26:59;99888.00;;;23.40
29423;BMP180;16399;51.686;8.684;2023-06-10T05:30:01;99881.00;;;23.10
29423;BMP180;16399;51.686;8.684;2023-06-10T05:33:05;99891.00;;;22.80
29423;BMP180;16399;51.686;8.684;2023-06-10T05:36:08;99894.00;;;22.50
29423;BMP180;16399;51.686;8.684;2023-06-10T05:39:10;99893.00;;;22.20
29423;BMP180;16399;51.686;8.684;2023-06-10T05:42:12;99901.00;;;22.00
29423;BMP180;16399;51.686;8.684;2023-06-10T05:45:15;99900.00;;;21.80
29423;BMP180;16399;51.686;8.684;2023-06-10T05:48:17;99902.00;;;21.80
29423;BMP180;16399;51.686;8.684;2023-06-10T05:51:21;99898.00;;;22.20
29423;BMP180;16399;51.686;8.684;2023-06-10T05:54:23;99885.00;;;22.80
29423;BMP180;16399;51.686;8.684;2023-06-10T05:57:26;99894.00;;;23.10
29423;BMP180;16399;51.686;8.684;2023-06-10T06:00:28;99896.00;;;23.10
29423;BMP180;16399;51.686;8.684;2023-06-10T06:03:30;99894.00;;;22.90
29423;BMP180;16399;51.686;8.684;2023-06-10T06:06:32;99886.00;;;22.80
29423;BMP180;16399;51.686;8.684;2023-06-10T06:09:35;99889.00;;;22.60
29423;BMP180;16399;51.686;8.684;2023-06-10T06:12:37;99883.00;;;22.50
29423;BMP180;16399;51.686;8.684;2023-06-10T06:15:39;99882.00;;;22.40
29423;BMP180;16399;51.686;8.684;2023-06-10T06:18:42;99871.00;;;22.20
29423;BMP180;16399;51.686;8.684;2023-06-10T06:21:44;99881.00;;;22.20
29423;BMP180;16399;51.686;8.684;2023-06-10T06:24:46;99879.00;;;22.20
29423;BMP180;16399;51.686;8.684;2023-06-10T06:27:50;99877.00;;;22.20
29423;BMP180;16399;51.686;8.684;2023-06-10T06:30:52;99882.00;;;22.30
29423;BMP180;16399;51.686;8.684;2023-06-10T06:33:55;99885.00;;;22.40
29423;BMP180;16399;51.686;8.684;2023-06-10T06:36:57;99885.00;;;22.80
29423;BMP180;16399;51.686;8.684;2023-06-10T06:40:00;99895.00;;;23.10
29423;BMP180;16399;51.686;8.684;2023-06-10T06:43:02;99900.00;;;23.30
29423;BMP180;16399;51.686;8.684;2023-06-10T06:46:04;99890.00;;;23.50
29423;BMP180;16399;51.686;8.684;2023-06-10T06:49:07;99902.00;;;23.50
29423;BMP180;16399;51.686;8.684;2023-06-10T06:52:09;99899.00;;;23.60
29423;BMP180;16399;51.686;8.684;2023-06-10T06:55:11;99898.00;;;23.80
29423;BMP180;16399;51.686;8.684;2023-06-10T06:58:14;99909.00;;;24.00
29423;BMP180;16399;51.686;8.684;2023-06-10T07:01:16;99905.00;;;24.10
29423;BMP180;16399;51.686;8.684;2023-06-10T07:04:18;99906.00;;;24.20
29423;BMP180;16399;51.686;8.684;2023-06-10T07:07:22;99911.00;;;24.30
29423;BMP180;16399;51.686;8.684;2023-06-10T07:10:25;99903.00;;;24.40
29423;BMP180;16399;51.686;8.684;2023-06-10T07:13:28;99911.00;;;24.40
29423;BMP180;16399;51.686;8.684;2023-06-10T07:16:30;99907.00;;;24.40
29423;BMP180;16399;51.686;8.684;2023-06-10T07:19:32;99913.00;;;24.50
29423;BMP180;16399;51.686;8.684;2023-06-10T07:22:35;99908.00;;;24.50
29423;BMP180;16399;51.686;8.684;2023-06-10T07:25:37;99912.00;;;24.60
29423;BMP180;16399;51.686;8.684;2023-06-10T07:28:42;99906.00;;;24.70
29423;BMP180;16399;51.686;8.684;2023-06-10T07:31:44;99911.00;;;24.90
29423;BMP180;16399;51.686;8.684;2023-06-10T07:34:47;99903.00;;;25.00
29423;BMP180;16399;51.686;8.684;2023-06-10T07:37:49;99913.00;;;25.10
29423;BMP180;16399;51.686;8.684;2023-06-10T07:40:52;99908.00;;;25.20
29423;BMP180;16399;51.686;8.684;2023-06-10T07:43:54;99910.00;;;25.30
29423;BMP180;16399;51.686;8.684;2023-06-10T07:46:57;99912.00;;;25.40
29423;BMP180;16399;51.686;8.684;2023-06-10T07:49:59;99917.00;;;25.50
29423;BMP180;16399;51.686;8.684;2023-06-10T07:53:02;99916.00;;;25.60
29423;BMP180;16399;51.686;8.684;2023-06-10T07:56:04;99905.00;;;25.80
29423;BMP180;16399;51.686;8.684;2023-06-10T07:59:06;99909.00;;;25.80
29423;BMP180;16399;51.686;8.684;2023-06-10T08:02:09;99914.00;;;25.80
29423;BMP180;16399;51.686;8.684;2023-06-10T08:05:11;99909.00;;;26.00
29423;BMP180;16399;51.686;8.684;2023-06-10T08:08:14;99914.00;;;26.40
29423;BMP180;16399;51.686;8.684;2023-06-10T08:11:16;99919.00;;;26.70
29423;BMP180;16399;51.686;8.684;2023-06-10T08:14:18;99922.00;;;26.80
29423;BMP180;16399;51.686;8.684;2023-06-10T08:17:21;99922.00;;;27.20
29423;BMP180;16399;51.686;8.684;2023-06-10T08:20:23;99923.00;;;27.40
29423;BMP180;16399;51.686;8.684;2023-06-10T08:23:25;99919.00;;;27.60
29423;BMP180;16399;51.686;8.684;2023-06-10T08:26:27;99932.00;;;28.10
29423;BMP180;16399;51.686;8.684;2023-06-10T08:29:30;99917.00;;;28.60
29423;BMP180;16399;51.686;8.684;2023-06-10T08:32:33;99935.00;;;29.00
29423;BMP180;16399;51.686;8.684;2023-06-10T08:35:35;99931.00;;;29.30
29423;BMP180;16399;51.686;8.684;2023-06-10T08:38:38;99929.00;;;29.50
29423;BMP180;16399;51.686;8.684;2023-06-10T08:41:43;99923.00;;;29.90
29423;BMP180;16399;51.686;8.684;2023-06-10T08:44:46;99926.00;;;30.20
29423;BMP180;16399;51.686;8.684;2023-06-10T08:47:51;99923.00;;;30.50
29423;BMP180;16399;51.686;8.684;2023-06-10T08:50:55;99926.00;;;30.70
29423;BMP180;16399;51.686;8.684;2023-06-10T08:54:04;99921.00;;;30.60
29423;BMP180;16399;51.686;8.684;2023-06-10T08:57:07;99923.00;;;30.70
29423;BMP180;16399;51.686;8.684;2023-06-10T09:00:10;99917.00;;;30.20
29423;BMP180;16399;51.686;8.684;2023-06-10T09:03:13;99924.00;;;30.00
29423;BMP180;16399;51.686;8.684;2023-06-10T09:06:16;99917.00;;;29.60
29423;BMP180;16399;51.686;8.684;2023-06-10T09:09:18;99920.00;;;29.60
29423;BMP180;16399;51.686;8.684;2023-06-10T09:12:21;99915.00;;;29.50
29423;BMP180;16399;51.686;8.684;2023-06-10T09:15:23;99921.00;;;29.70
29423;BMP180;16399;51.686;8.684;2023-06-10T09:18:27;99919.00;;;29.40
29423;BMP180;16399;51.686;8.684;2023-06-10T09:21:29;99913.00;;;29.30
29423;BMP180;16399;51.686;8.684;2023-06-10T09:24:33;99916.00;;;29.70
29423;BMP180;16399;51.686;8.684;2023-06-10T09:27:48;99908.00;;;30.10
29423;BMP180;16399;51.686;8.684;2023-06-10T09:30:41;99911.00;;;30.50
29423;BMP180;16399;51.686;8.684;2023-06-10T09:33:45;99904.00;;;30.30
29423;BMP180;16399;51.686;8.684;2023-06-10T09:36:47;99915.00;;;30.50
29423;BMP180;16399;51.686;8.684;2023-06-10T09:40:04;99908.00;;;30.40
29423;BMP180;16399;51.686;8.684;2023-06-10T09:43:06;99905.00;;;30.70
29423;BMP180;16399;51.686;8.684;2023-06-10T09:46:30;99899.00;;;30.90
29423;BMP180;16399;51.686;8.684;2023-06-10T09:49:18;99904.00;;;30.90
29423;BMP180;16399;51.686;8.684;2023-06-10T09:52:28;99905.00;;;30.70
29423;BMP180;16399;51.686;8.684;2023-06-10T09:55:32;99904.00;;;30.50
29423;BMP180;16399;51.686;8.684;2023-06-10T09:58:37;99904.00;;;30.30
29423;BMP180;16399;51.686;8.684;2023-06-10T10:01:40;99900.00;;;30.30
29423;BMP180;16399;51.686;8.684;2023-06-10T10:04:43;99913.00;;;30.00
29423;BMP180;16399;51.686;8.684;2023-06-10T10:07:46;99902.00;;;30.00
29423;BMP180;16399;51.686;8.684;2023-06-10T10:10:48;99906.00;;;30.00
29423;BMP180;16399;51.686;8.684;2023-06-10T10:13:51;99908.00;;;30.10
29423;BMP180;16399;51.686;8.684;2023-06-10T10:16:54;99901.00;;;29.80
29423;BMP180;16399;51.686;8.684;2023-06-10T10:20:00;99905.00;;;29.80
29423;BMP180;16399;51.686;8.684;2023-06-10T10:23:04;99901.00;;;30.00
29423;BMP180;16399;51.686;8.684;2023-06-10T10:26:09;99907.00;;;30.00
29423;BMP180;16399;51.686;8.684;2023-06-10T10:29:23;99899.00;;;30.30
29423;BMP180;16399;51.686;8.684;2023-06-10T10:32:27;99901.00;;;30.80
29423;BMP180;16399;51.686;8.684;2023-06-10T10:35:31;99910.00;;;31.20
29423;BMP180;16399;51.686;8.684;2023-06-10T10:38:35;99902.00;;;31.40
29423;BMP180;16399;51.686;8.684;2023-06-10T10:41:38;99901.00;;;31.20
29423;BMP180;16399;51.686;8.684;2023-06-10T10:44:41;99901.00;;;30.70
29423;BMP180;16399;51.686;8.684;2023-06-10T10:47:45;99905.00;;;30.90
29423;BMP180;16399;51.686;8.684;2023-06-10T10:50:59;99899.00;;;30.70
29423;BMP180;16399;51.686;8.684;2023-06-10T10:54:16;99894.00;;;30.50
29423;BMP180;16399;51.686;8.684;2023-06-10T10:57:19;99895.00;;;30.40
29423;BMP180;16399;51.686;8.684;2023-06-10T11:00:29;99901.00;;;30.00
29423;BMP180;16399;51.686;8.684;2023-06-10T11:03:29;99894.00;;;29.90
29423;BMP180;16399;51.686;8.684;2023-06-10T11:06:31;99893.00;;;29.20
29423;BMP180;16399;51.686;8.684;2023-06-10T11:09:34;99891.00;;;29.40
29423;BMP180;16399;51.686;8.684;2023-06-10T11:12:54;99890.00;;;29.30
29423;BMP180;16399;51.686;8.684;2023-06-10T11:15:57;99886.00;;;29.10
29423;BMP180;16399;51.686;8.684;2023-06-10T11:18:59;99889.00;;;29.00
29423;BMP180;16399;51.686;8.684;2023-06-10T11:22:06;99882.00;;;29.00
29423;BMP180;16399;51.686;8.684;2023-06-10T11:25:16;99887.00;;;29.00
29423;BMP180;16399;51.686;8.684;2023-06-10T11:28:19;99885.00;;;28.90
29423;BMP180;16399;51.686;8.684;2023-06-10T11:31:22;99878.00;;;28.90
29423;BMP180;16399;51.686;8.684;2023-06-10T11:34:25;99879.00;;;28.60
29423;BMP180;16399;51.686;8.684;2023-06-10T11:37:28;99885.00;;;28.60
29423;BMP180;16399;51.686;8.684;2023-06-10T11:40:31;99888.00;;;28.40
29423;BMP180;16399;51.686;8.684;2023-06-10T11:43:34;99884.00;;;28.40
29423;BMP180;16399;51.686;8.684;2023-06-10T11:46:36;99883.00;;;28.50
29423;BMP180;16399;51.686;8.684;2023-06-10T11:49:39;99874.00;;;28.70
29423;BMP180;16399;51.686;8.684;2023-06-10T11:52:41;99880.00;;;28.90
29423;BMP180;16399;51.686;8.684;2023-06-10T11:55:48;99870.00;;;29.00
29423;BMP180;16399;51.686;8.684;2023-06-10T11:59:01;99875.00;;;29.00
29423;BMP180;16399;51.686;8.684;2023-06-10T12:02:06;99874.00;;;29.10
29423;BMP180;16399;51.686;8.684;2023-06-10T12:05:15;99874.00;;;29.00
29423;BMP180;16399;51.686;8.684;2023-06-10T12:08:14;99876.00;;;29.00
29423;BMP180;16399;51.686;8.684;2023-06-10T12:11:16;99872.00;;;29.00
29423;BMP180;16399;51.686;8.684;2023-06-10T12:14:57;99862.00;;;29.00
29423;BMP180;16399;51.686;8.684;2023-06-10T12:17:57;99873.00;;;28.80
29423;BMP180;16399;51.686;8.684;2023-06-10T12:20:59;99872.00;;;28.80
29423;BMP180;16399;51.686;8.684;2023-06-10T12:24:09;99865.00;;;28.80
29423;BMP180;16399;51.686;8.684;2023-06-10T12:27:13;99870.00;;;28.80
29423;BMP180;16399;51.686;8.684;2023-06-10T12:30:20;99869.00;;;28.80
29423;BMP180;16399;51.686;8.684;2023-06-10T12:33:23;99869.00;;;28.80
29423;BMP180;16399;51.686;8.684;2023-06-10T12:36:25;99867.00;;;28.60
29423;BMP180;16399;51.686;8.684;2023-06-10T12:39:28;99873.00;;;28.70
29423;BMP180;16399;51.686;8.684;2023-06-10T12:42:31;99871.00;;;28.70
29423;BMP180;16399;51.686;8.684;2023-06-10T12:45:39;99869.00;;;28.70
29423;BMP180;16399;51.686;8.684;2023-06-10T12:48:51;99870.00;;;28.50
29423;BMP180;16399;51.686;8.684;2023-06-10T12:51:55;99864.00;;;28.50
29423;BMP180;16399;51.686;8.684;2023-06-10T12:54:58;99856.00;;;28.50
29423;BMP180;16399;51.686;8.684;2023-06-10T12:58:01;99863.00;;;28.40
29423;BMP180;16399;51.686;8.684;2023-06-10T13:01:04;99863.00;;;28.60
29423;BMP180;16399;51.686;8.684;2023-06-10T13:04:06;99862.00;;;28.60
29423;BMP180;16399;51.686;8.684;2023-06-10T13:07:08;99859.00;;;28.80
29423;BMP180;16399;51.686;8.684;2023-06-10T13:10:12;99862.00;;;28.60
29423;BMP180;16399;51.686;8.684;2023-06-10T13:13:15;99869.00;;;28.40
29423;BMP180;16399;51.686;8.684;2023-06-10T13:16:17;99860.00;;;28.50
29423;BMP180;16399;51.686;8.684;2023-06-10T13:19:20;99866.00;;;28.50
29423;BMP180;16399;51.686;8.684;2023-06-10T13:22:26;99860.00;;;28.60
29423;BMP180;16399;51.686;8.684;2023-06-10T13:25:29;99852.00;;;28.80
29423;BMP180;16399;51.686;8.684;2023-06-10T13:28:32;99855.00;;;28.80
29423;BMP180;16399;51.686;8.684;2023-06-10T13:31:34;99842.00;;;28.80
29423;BMP180;16399;51.686;8.684;2023-06-10T13:34:36;99838.00;;;28.80
29423;BMP180;16399;51.686;8.684;2023-06-10T13:37:39;99837.00;;;28.60
29423;BMP180;16399;51.686;8.684;2023-06-10T13:40:41;99829.00;;;28.60
29423;BMP180;16399;51.686;8.684;2023-06-10T13:43:43;99844.00;;;28.40
29423;BMP180;16399;51.686;8.684;2023-06-10T13:46:46;99825.00;;;28.50
29423;BMP180;16399;51.686;8.684;2023-06-10T13:49:48;99829.00;;;28.50
29423;BMP180;16399;51.686;8.684;2023-06-10T13:52:50;99828.00;;;28.50
29423;BMP180;16399;51.686;8.684;2023-06-10T13:55:52;99817.00;;;28.40
29423;BMP180;16399;51.686;8.684;2023-06-10T13:58:55;99813.00;;;28.40
29423;BMP180;16399;51.686;8.684;2023-06-10T14:01:57;99823.00;;;28.40
29423;BMP180;16399;51.686;8.684;2023-06-10T14:04:59;99803.00;;;28.40
29423;BMP180;16399;51.686;8.684;2023-06-10T14:08:02;99804.00;;;28.40
29423;BMP180;16399;51.686;8.684;2023-06-10T14:11:05;99818.00;;;28.40
29423;BMP180;16399;51.686;8.684;2023-06-10T14:14:07;99810.00;;;28.60
29423;BMP180;16399;51.686;8.684;2023-06-10T14:17:10;99798.00;;;28.70
29423;BMP180;16399;51.686;8.684;2023-06-10T14:20:12;99801.00;;;28.80
29423;BMP180;16399;51.686;8.684;2023-06-10T14:23:15;99790.00;;;28.80
29423;BMP180;16399;51.686;8.684;2023-06-10T14:26:17;99788.00;;;28.90
29423;BMP180;16399;51.686;8.684;2023-06-10T14:29:19;99808.00;;;29.00
29423;BMP180;16399;51.686;8.684;2023-06-10T14:32:22;99807.00;;;29.00
29423;BMP180;16399;51.686;8.684;2023-06-10T14:35:24;99800.00;;;29.00
29423;BMP180;16399;51.686;8.684;2023-06-10T14:38:26;99808.00;;;28.90
29423;BMP180;16399;51.686;8.684;2023-06-10T14:41:28;99808.00;;;28.80
29423;BMP180;16399;51.686;8.684;2023-06-10T14:44:31;99804.00;;;28.70
29423;BMP180;16399;51.686;8.684;2023-06-10T14:47:33;99810.00;;;28.50
29423;BMP180;16399;51.686;8.684;2023-06-10T14:50:35;99803.00;;;28.40
29423;BMP180;16399;51.686;8.684;2023-06-10T14:53:38;99797.00;;;28.50
29423;BMP180;16399;51.686;8.684;2023-06-10T14:56:40;99813.00;;;28.50
29423;BMP180;16399;51.686;8.684;2023-06-10T14:59:42;99821.00;;;28.40
29423;BMP180;16399;51.686;8.684;2023-06-10T15:02:45;99802.00;;;28.20
29423;BMP180;16399;51.686;8.684;2023-06-10T15:05:49;99801.00;;;27.90
29423;BMP180;16399;51.686;8.684;2023-06-10T15:08:51;99797.00;;;27.70
29423;BMP180;16399;51.686;8.684;2023-06-10T15:11:54;99802.00;;;27.70
29423;BMP180;16399;51.686;8.684;2023-06-10T15:14:56;99791.00;;;27.70
29423;BMP180;16399;51.686;8.684;2023-06-10T15:17:58;99779.00;;;27.80
29423;BMP180;16399;51.686;8.684;2023-06-10T15:21:01;99787.00;;;28.00
29423;BMP180;16399;51.686;8.684;2023-06-10T15:24:03;99788.00;;;28.30
29423;BMP180;16399;51.686;8.684;2023-06-10T15:27:06;99808.00;;;28.30
29423;BMP180;16399;51.686;8.684;2023-06-10T15:30:08;99836.00;;;28.00
29423;BMP180;16399;51.686;8.684;2023-06-10T15:33:10;99845.00;;;27.50
29423;BMP180;16399;51.686;8.684;2023-06-10T15:36:13;99880.00;;;25.90
29423;BMP180;16399;51.686;8.684;2023-06-10T15:39:15;99873.00;;;24.20
29423;BMP180;16399;51.686;8.684;2023-06-10T15:42:17;99864.00;;;23.00
29423;BMP180;16399;51.686;8.684;2023-06-10T15:45:20;99856.00;;;22.20
29423;BMP180;16399;51.686;8.684;2023-06-10T15:48:22;99863.00;;;21.60
29423;BMP180;16399;51.686;8.684;2023-06-10T15:51:24;99866.00;;;21.20
29423;BMP180;16399;51.686;8.684;2023-06-10T15:54:27;99867.00;;;20.90
29423;BMP180;16399;51.686;8.684;2023-06-10T15:57:29;99865.00;;;20.80
29423;BMP180;16399;51.686;8.684;2023-06-10T16:00:31;99857.00;;;20.60
29423;BMP180;16399;51.686;8.684;2023-06-10T16:03:33;99852.00;;;20.50
29423;BMP180;16399;51.686;8.684;2023-06-10T16:06:36;99841.00;;;20.40
29423;BMP180;16399;51.686;8.684;2023-06-10T16:09:38;99843.00;;;20.40
29423;BMP180;16399;51.686;8.684;2023-06-10T16:12:40;99837.00;;;20.40
29423;BMP180;16399;51.686;8.684;2023-06-10T16:15:43;99837.00;;;20.50
29423;BMP180;16399;51.686;8.684;2023-06-10T16:18:45;99831.00;;;20.60
29423;BMP180;16399;51.686;8.684;2023-06-10T16:21:47;99841.00;;;20.70
29423;BMP180;16399;51.686;8.684;2023-06-10T16:24:50;99853.00;;;20.80
29423;BMP180;16399;51.686;8.684;2023-06-10T16:27:52;99840.00;;;20.80
29423;BMP180;16399;51.686;8.684;2023-06-10T16:30:54;99836.00;;;20.80
29423;BMP180;16399;51.686;8.684;2023-06-10T16:33:56;99826.00;;;20.80
29423;BMP180;16399;51.686;8.684;2023-06-10T16:36:59;99822.00;;;20.80
29423;BMP180;16399;51.686;8.684;2023-06-10T16:40:01;99809.00;;;21.00
29423;BMP180;16399;51.686;8.684;2023-06-10T16:43:03;99793.00;;;21.20
29423;BMP180;16399;51.686;8.684;2023-06-10T16:46:06;99798.00;;;21.30
29423;BMP180;16399;51.686;8.684;2023-06-10T16:49:08;99806.00;;;21.50
29423;BMP180;16399;51.686;8.684;2023-06-10T16:52:10;99796.00;;;21.60
29423;BMP180;16399;51.686;8.684;2023-06-10T16:55:13;99796.00;;;21.60
29423;BMP180;16399;51.686;8.684;2023-06-10T16:58:15;99792.00;;;21.60
29423;BMP180;16399;51.686;8.684;2023-06-10T17:01:17;99798.00;;;21.60
29423;BMP180;16399;51.686;8.684;2023-06-10T17:04:19;99802.00;;;21.70
29423;BMP180;16399;51.686;8.684;2023-06-10T17:07:23;99796.00;;;21.70
29423;BMP180;16399;51.686;8.684;2023-06-10T17:10:26;99802.00;;;21.70
29423;BMP180;16399;51.686;8.684;2023-06-10T17:13:28;99805.00;;;21.70
29423;BMP180;16399;51.686;8.684;2023-06-10T17:16:31;99811.00;;;21.70
29423;BMP180;16399;51.686;8.684;2023-06-10T17:19:33;99818.00;;;21.70
29423;BMP180;16399;51.686;8.684;2023-06-10T17:22:35;99812.00;;;21.70
29423;BMP180;16399;51.686;8.684;2023-06-10T17:25:38;99820.00;;;21.70
29423;BMP180;16399;51.686;8.684;2023-06-10T17:28:40;99812.00;;;21.80
29423;BMP180;16399;51.686;8.684;2023-06-10T17:31:42;99812.00;;;21.80
29423;BMP180;16399;51.686;8.684;2023-06-10T17:34:44;99813.00;;;21.90